createdAt,value
2023-05-08T00:09:03.735Z,0.00
2023-05-08T00:19:04.348Z,0.00
2023-05-08T00:29:06.440Z,0.00
2023-05-08T00:39:05.324Z,0.00
2023-05-08T00:49:05.884Z,0.00
2023-05-08T00:59:06.429Z,0.00
2023-05-08T01:09:06.958Z,0.00
2023-05-08T01:19:07.541Z,0.00
2023-05-08T01:29:08.070Z,0.00
2023-05-08T01:39:08.645Z,0.00
2023-05-08T01:49:09.199Z,0.00
2023-05-08T01:59:09.772Z,0.00
2023-05-08T02:09:10.301Z,0.00
2023-05-08T02:19:10.879Z,0.00
2023-05-08T02:29:11.415Z,0.00
2023-05-08T02:39:11.978Z,0.00
2023-05-08T02:49:12.503Z,0.00
2023-05-08T02:59:13.040Z,8.00
2023-05-08T03:09:13.517Z,3.00
2023-05-08T03:19:14.029Z,10.00
2023-05-08T03:29:14.528Z,39.00
2023-05-08T03:39:22.081Z,108.00
2023-05-08T03:49:15.512Z,196.00
2023-05-08T03:59:16.031Z,369.00
2023-05-08T04:09:16.516Z,528.00
2023-05-08T04:19:17.028Z,642.00
2023-05-08T04:29:17.508Z,760.00
2023-05-08T04:39:18.051Z,874.00
2023-05-08T04:49:18.555Z,369.00
2023-05-08T04:59:19.133Z,1475.00
2023-05-08T05:09:19.616Z,2772.00
2023-05-08T05:19:20.166Z,3146.00
2023-05-08T05:29:20.665Z,3497.00
2023-05-08T05:39:21.217Z,4124.00
2023-05-08T05:49:21.688Z,2815.00
2023-05-08T05:59:22.233Z,1785.00
2023-05-08T06:09:22.763Z,1851.00
2023-05-08T06:19:23.239Z,1735.00
2023-05-08T06:29:23.725Z,2118.00
2023-05-08T06:39:24.289Z,1615.00
2023-05-08T06:49:24.754Z,1959.00
2023-05-08T06:59:25.361Z,1777.00
2023-05-08T07:09:25.811Z,2012.00
2023-05-08T07:19:26.420Z,2161.00
2023-05-08T07:29:26.962Z,2068.00
2023-05-08T07:39:27.503Z,2703.00
2023-05-08T07:49:27.975Z,2758.00
2023-05-08T07:59:28.524Z,2644.00
2023-05-08T08:09:28.966Z,2623.00
2023-05-08T08:19:29.568Z,3794.00
2023-05-08T08:29:29.998Z,3171.00
2023-05-08T08:39:30.612Z,3487.00
2023-05-08T08:49:31.049Z,4237.00
2023-05-08T08:59:31.677Z,3607.00
2023-05-08T09:09:32.120Z,4302.00
2023-05-08T09:19:32.738Z,4548.00
2023-05-08T09:29:33.318Z,4550.00
2023-05-08T09:39:40.975Z,4965.00
2023-05-08T09:49:34.397Z,4343.00
2023-05-08T09:59:35.012Z,5474.00
2023-05-08T10:09:47.443Z,5020.00
2023-05-08T10:19:37.466Z,6068.00
2023-05-08T10:29:36.895Z,5677.00
2023-05-08T10:39:37.535Z,5722.00
2023-05-08T10:49:37.976Z,6310.00
2023-05-08T10:59:38.498Z,5706.00
2023-05-08T11:09:38.979Z,5980.00
2023-05-08T11:19:39.519Z,6042.00
2023-05-08T11:29:39.997Z,6349.00
2023-05-08T11:39:40.525Z,6265.00
2023-05-08T11:49:41.008Z,6280.00
2023-05-08T11:59:41.552Z,6239.00
2023-05-08T12:09:42.018Z,6201.00
2023-05-08T12:19:42.548Z,6309.00
2023-05-08T12:29:43.040Z,6073.00
2023-05-08T12:39:43.672Z,6402.00
2023-05-08T12:49:44.107Z,5905.00
2023-05-08T12:59:44.710Z,6020.00
2023-05-08T13:09:45.140Z,5734.00
2023-05-08T13:19:45.656Z,5660.00
2023-05-08T13:29:46.121Z,5767.00
2023-05-08T13:39:46.757Z,5384.00
2023-05-08T13:49:47.254Z,5086.00
2023-05-08T13:59:47.854Z,5117.00
2023-05-08T14:09:48.311Z,4846.00
2023-05-08T14:19:48.945Z,4660.00
2023-05-08T14:29:49.426Z,4603.00
2023-05-08T14:39:50.015Z,4234.00
2023-05-08T14:49:50.450Z,4108.00
2023-05-08T15:09:51.483Z,3910.00
2023-05-08T15:19:52.110Z,3301.00
2023-05-08T15:29:52.552Z,3250.00
2023-05-08T15:40:00.269Z,2909.00
2023-05-08T15:49:53.717Z,2731.00
2023-05-08T15:59:54.394Z,2618.00
2023-05-08T16:09:54.875Z,2358.00
2023-05-08T16:19:55.468Z,2176.00
2023-05-08T16:29:55.950Z,1933.00
2023-05-08T16:39:56.585Z,1790.00
2023-05-08T16:49:57.013Z,1646.00
2023-05-08T16:59:57.638Z,1465.00
2023-05-08T17:09:58.239Z,1328.00
2023-05-08T17:19:59.024Z,1178.00
2023-05-08T17:29:59.631Z,1085.00
2023-05-08T17:40:00.367Z,1031.00
2023-05-08T17:50:00.803Z,915.00
2023-05-08T18:00:01.447Z,718.00
2023-05-08T18:10:02.021Z,549.00
2023-05-08T18:20:03.502Z,427.00
2023-05-08T18:30:03.494Z,305.00
2023-05-08T18:40:04.159Z,190.00
2023-05-08T18:50:04.926Z,92.00
2023-05-08T19:00:05.591Z,37.00
2023-05-08T19:10:06.059Z,11.00
2023-05-08T19:20:06.747Z,3.00
2023-05-08T19:30:07.240Z,1.00
2023-05-08T19:40:08.003Z,0.00
2023-05-08T19:50:08.545Z,0.00
2023-05-08T20:00:09.264Z,0.00
2023-05-08T20:10:09.761Z,0.00
2023-05-08T20:20:10.321Z,0.00
2023-05-08T20:30:10.868Z,0.00
2023-05-08T20:40:11.756Z,0.00
2023-05-08T20:50:12.001Z,0.00
2023-05-08T21:00:12.951Z,0.00
2023-05-08T21:10:13.801Z,0.00
2023-05-08T21:20:14.529Z,0.00
2023-05-08T21:30:14.858Z,0.00
2023-05-08T21:40:15.666Z,0.00
2023-05-08T21:50:16.298Z,0.00
2023-05-08T22:00:23.956Z,0.00
2023-05-08T22:10:17.425Z,0.00
2023-05-08T22:20:18.085Z,0.00
2023-05-08T22:30:18.593Z,0.00
2023-05-08T22:40:19.280Z,0.00
2023-05-08T22:50:19.792Z,0.00
2023-05-08T23:00:20.438Z,0.00
2023-05-08T23:10:20.953Z,0.00
2023-05-08T23:20:21.524Z,0.00
2023-05-08T23:30:22.053Z,0.00
2023-05-08T23:40:22.759Z,0.00
2023-05-08T23:50:23.271Z,0.00
